createdAt,value
2019-03-03T00:00:22.807Z,16.33
2019-03-03T00:02:52.370Z,19.83
2019-03-03T00:05:23.225Z,17.23
2019-03-03T00:07:52.705Z,18.70
2019-03-03T00:10:22.163Z,17.03
2019-03-03T00:12:51.621Z,17.97
2019-03-03T00:15:21.241Z,18.03
2019-03-03T00:18:09.825Z,18.53
2019-03-03T00:20:59.623Z,17.03
2019-03-03T00:23:29.434Z,16.73
2019-03-03T00:25:58.880Z,16.97
2019-03-03T00:28:51.208Z,15.50
2019-03-03T00:31:31.410Z,18.43
2019-03-03T00:34:00.959Z,15.10
2019-03-03T00:36:49.273Z,21.13
2019-03-03T00:39:37.585Z,17.77
2019-03-03T00:42:25.932Z,19.03
2019-03-03T00:45:14.418Z,21.27
2019-03-03T00:48:02.695Z,18.13
2019-03-03T00:50:39.576Z,18.57
2019-03-03T00:53:18.147Z,17.77
2019-03-03T00:55:53.090Z,18.87
2019-03-03T00:58:53.976Z,19.83
2019-03-03T01:01:42.676Z,20.37
2019-03-03T01:07:39.928Z,18.30
2019-03-03T01:13:49.076Z,18.63
2019-03-03T01:16:37.691Z,20.50
2019-03-03T01:19:25.985Z,20.03
2019-03-03T01:22:00.182Z,20.50
2019-03-03T01:24:48.649Z,16.23
2019-03-03T01:27:18.392Z,17.20
2019-03-03T01:29:50.845Z,17.93
2019-03-03T01:32:20.412Z,20.73
2019-03-03T01:34:49.918Z,17.97
2019-03-03T01:37:39.812Z,18.23
2019-03-03T01:40:21.093Z,20.03
2019-03-03T01:42:50.657Z,17.83
2019-03-03T01:45:20.163Z,20.97
2019-03-03T01:47:49.569Z,19.70
2019-03-03T01:50:19.152Z,20.03
2019-03-03T01:52:48.742Z,17.50
2019-03-03T01:55:18.278Z,22.50
2019-03-03T01:57:50.478Z,18.67
2019-03-03T02:00:39.207Z,21.00
2019-03-03T02:03:20.179Z,20.37
2019-03-03T02:06:01.002Z,22.00
2019-03-03T02:11:05.804Z,20.30
2019-03-03T02:13:35.256Z,22.27
2019-03-03T02:18:55.030Z,19.20
2019-03-03T02:21:24.920Z,18.97
2019-03-03T02:23:54.321Z,21.20
2019-03-03T02:26:23.897Z,17.57
2019-03-03T02:28:53.469Z,25.20
2019-03-03T02:31:25.940Z,16.77
2019-03-03T02:33:55.399Z,22.73
2019-03-03T02:36:25.281Z,20.17
2019-03-03T02:38:54.882Z,21.00
2019-03-03T02:41:54.550Z,16.77
2019-03-03T02:44:26.603Z,21.73
2019-03-03T02:47:15.106Z,18.50
2019-03-03T02:49:56.062Z,20.53
2019-03-03T02:52:26.098Z,24.30
2019-03-03T02:54:55.509Z,17.03
2019-03-03T02:57:25.465Z,20.67
2019-03-03T03:00:15.993Z,21.30
2019-03-03T03:09:18.211Z,16.17
2019-03-03T03:12:02.220Z,17.90
2019-03-03T03:14:46.041Z,18.10
2019-03-03T03:17:34.369Z,16.50
2019-03-03T03:20:29.370Z,15.37
2019-03-03T03:23:17.842Z,15.07
2019-03-03T03:26:06.163Z,18.37
2019-03-03T03:28:54.500Z,16.23
2019-03-03T03:31:34.662Z,17.37
2019-03-03T03:34:23.101Z,18.43
2019-03-03T03:37:11.480Z,18.13
2019-03-03T03:40:14.758Z,17.73
2019-03-03T03:43:23.559Z,14.30
2019-03-03T03:46:01.528Z,15.67
2019-03-03T03:48:42.868Z,17.00
2019-03-03T03:51:31.224Z,16.97
2019-03-03T03:54:19.692Z,17.90
2019-03-03T03:56:58.258Z,17.50
2019-03-03T03:59:46.533Z,19.63
2019-03-03T04:02:34.912Z,16.43
2019-03-03T04:05:42.178Z,19.20
2019-03-03T04:08:17.263Z,18.83
2019-03-03T04:11:00.126Z,16.43
2019-03-03T04:14:07.393Z,16.93
2019-03-03T04:17:00.862Z,14.33
2019-03-03T04:19:36.361Z,17.50
2019-03-03T04:22:33.748Z,17.27
2019-03-03T04:25:36.350Z,14.73
2019-03-03T04:28:12.141Z,11.33
2019-03-03T04:31:04.866Z,14.17
2019-03-03T04:33:42.844Z,13.97
2019-03-03T04:36:50.163Z,13.90
2019-03-03T04:39:38.644Z,15.17
2019-03-03T04:42:26.987Z,12.50
2019-03-03T04:45:15.239Z,10.97
2019-03-03T04:48:03.691Z,13.43
2019-03-03T04:54:08.338Z,13.23
2019-03-03T04:56:56.653Z,11.47
2019-03-03T04:59:45.064Z,14.10
2019-03-03T05:02:33.379Z,11.33
2019-03-03T05:08:07.455Z,13.10
2019-03-03T05:10:55.760Z,13.20
2019-03-03T05:14:01.432Z,11.43
2019-03-03T05:16:53.034Z,16.63
2019-03-03T05:22:01.325Z,13.97
2019-03-03T05:24:37.569Z,16.30
2019-03-03T05:27:07.013Z,14.20
2019-03-03T05:29:36.517Z,13.33
2019-03-03T05:32:06.046Z,16.20
2019-03-03T05:34:35.438Z,12.90
2019-03-03T05:37:04.882Z,14.43
2019-03-03T05:42:56.110Z,13.67
2019-03-03T05:45:46.120Z,14.07
2019-03-03T05:48:34.656Z,17.57
2019-03-03T05:53:39.445Z,16.17
2019-03-03T05:56:28.111Z,17.33
2019-03-03T05:58:59.060Z,15.93
2019-03-03T06:01:28.542Z,15.10
2019-03-03T06:03:58.107Z,20.00
2019-03-03T06:06:27.489Z,17.10
2019-03-03T06:09:00.342Z,14.97
2019-03-03T06:11:29.767Z,14.57
2019-03-03T06:13:59.161Z,13.87
2019-03-03T06:16:50.203Z,17.53
2019-03-03T06:19:19.783Z,14.20
2019-03-03T06:21:49.211Z,14.57
2019-03-03T06:24:41.333Z,17.33
2019-03-03T06:30:13.817Z,14.67
2019-03-03T06:32:43.225Z,16.93
2019-03-03T06:35:12.836Z,12.93
2019-03-03T06:37:42.306Z,14.40
2019-03-03T06:40:11.941Z,14.30
2019-03-03T06:43:00.277Z,12.63
2019-03-03T06:45:29.741Z,14.10
2019-03-03T06:48:18.246Z,13.70
2019-03-03T06:53:55.100Z,14.63
2019-03-03T06:59:20.361Z,13.20
2019-03-03T07:02:08.857Z,13.00
2019-03-03T07:04:38.342Z,13.27
2019-03-03T07:07:07.718Z,12.47
2019-03-03T07:09:37.093Z,11.03
2019-03-03T07:12:06.497Z,11.07
2019-03-03T07:14:35.883Z,12.23
2019-03-03T07:17:05.365Z,10.63
2019-03-03T07:19:34.784Z,11.87
2019-03-03T07:22:06.055Z,9.23
2019-03-03T07:24:35.596Z,11.57
2019-03-03T07:27:05.070Z,11.23
2019-03-03T07:29:34.981Z,12.30
2019-03-03T07:32:04.472Z,8.83
2019-03-03T07:34:34.141Z,9.40
2019-03-03T07:37:03.587Z,12.03
2019-03-03T07:39:35.413Z,9.77
2019-03-03T07:44:46.189Z,8.50
2019-03-03T07:47:27.347Z,8.43
2019-03-03T07:53:11.304Z,12.73
2019-03-03T07:55:40.977Z,8.67
2019-03-03T07:58:10.352Z,9.30
2019-03-03T08:00:48.884Z,8.27
2019-03-03T08:03:20.726Z,7.97
2019-03-03T08:05:50.755Z,8.43
2019-03-03T08:08:20.253Z,8.40
2019-03-03T08:10:49.774Z,7.00
2019-03-03T08:13:19.287Z,7.47
2019-03-03T08:15:48.761Z,9.23
2019-03-03T08:18:18.239Z,6.83
2019-03-03T08:23:23.009Z,6.53
2019-03-03T08:28:33.338Z,6.13
2019-03-03T08:31:03.254Z,7.47
2019-03-03T08:33:32.993Z,9.13
2019-03-03T08:38:56.126Z,8.20
2019-03-03T08:47:52.835Z,7.53
2019-03-03T08:53:39.659Z,6.67
2019-03-03T08:56:28.044Z,5.53
2019-03-03T08:59:14.271Z,7.07
2019-03-03T09:01:53.402Z,7.93
2019-03-03T09:04:41.841Z,6.97
2019-03-03T09:10:31.342Z,5.53
2019-03-03T09:13:20.115Z,5.50
2019-03-03T09:16:08.576Z,5.00
2019-03-03T09:18:56.896Z,4.93
2019-03-03T09:21:45.353Z,5.93
2019-03-03T09:24:33.690Z,5.23
2019-03-03T09:27:22.457Z,7.00
2019-03-03T09:30:10.714Z,5.47
2019-03-03T09:33:02.248Z,5.80
2019-03-03T09:35:50.798Z,6.77
2019-03-03T09:38:30.142Z,6.80
2019-03-03T09:41:10.179Z,5.50
2019-03-03T09:43:58.536Z,5.73
2019-03-03T09:46:46.920Z,5.60
2019-03-03T09:49:35.276Z,5.57
2019-03-03T09:55:37.367Z,5.83
2019-03-03T09:58:25.715Z,6.00
2019-03-03T10:01:14.228Z,5.57
2019-03-03T10:04:04.293Z,5.10
2019-03-03T10:07:07.678Z,5.53
2019-03-03T10:09:48.801Z,6.00
2019-03-03T10:12:38.915Z,5.50
2019-03-03T10:15:27.855Z,5.97
2019-03-03T10:18:16.510Z,5.80
2019-03-03T10:21:04.838Z,5.20
2019-03-03T10:23:53.226Z,5.47
2019-03-03T10:26:38.707Z,5.53
2019-03-03T10:29:27.536Z,4.23
2019-03-03T10:32:16.036Z,5.83
2019-03-03T10:35:12.885Z,4.80
2019-03-03T10:38:01.318Z,5.10
2019-03-03T10:40:49.770Z,5.00
2019-03-03T10:43:38.005Z,4.37
2019-03-03T10:46:16.835Z,5.13
2019-03-03T10:49:05.140Z,4.27
2019-03-03T10:51:53.574Z,4.13
2019-03-03T10:55:03.853Z,4.57
2019-03-03T10:57:52.405Z,3.63
2019-03-03T11:00:40.917Z,5.03
2019-03-03T11:03:29.306Z,3.53
2019-03-03T11:06:18.381Z,3.50
2019-03-03T11:09:06.808Z,4.03
2019-03-03T11:11:48.210Z,4.00
2019-03-03T11:14:36.910Z,3.87
2019-03-03T11:17:25.325Z,5.00
2019-03-03T11:20:13.895Z,5.77
2019-03-03T11:23:02.224Z,5.10
2019-03-03T11:25:50.768Z,6.83
2019-03-03T11:28:39.114Z,4.93
2019-03-03T11:31:27.625Z,5.77
2019-03-03T11:34:15.919Z,7.47
2019-03-03T11:37:07.735Z,5.73
2019-03-03T11:39:56.162Z,7.27
2019-03-03T11:42:45.084Z,6.97
2019-03-03T11:45:33.390Z,7.70
2019-03-03T11:48:21.777Z,6.93
2019-03-03T11:50:56.708Z,10.87
2019-03-03T11:53:45.243Z,9.17
2019-03-03T11:59:48.503Z,8.40
2019-03-03T12:02:24.738Z,10.07
2019-03-03T12:05:13.063Z,13.40
2019-03-03T12:08:01.369Z,12.27
2019-03-03T12:10:50.072Z,13.20
2019-03-03T12:13:24.151Z,10.60
2019-03-03T12:16:12.717Z,15.40
2019-03-03T12:19:01.793Z,10.77
2019-03-03T12:21:51.345Z,15.80
2019-03-03T12:24:29.836Z,16.00
2019-03-03T12:27:08.548Z,15.93
2019-03-03T12:29:56.802Z,20.40
2019-03-03T12:32:45.200Z,12.57
2019-03-03T12:35:33.467Z,9.87
2019-03-03T12:38:21.865Z,13.53
2019-03-03T12:41:10.197Z,11.03
2019-03-03T12:43:58.689Z,14.27
2019-03-03T12:46:47.510Z,18.33
2019-03-03T12:49:36.085Z,15.50
2019-03-03T12:52:24.491Z,13.20
2019-03-03T12:55:12.860Z,12.83
2019-03-03T12:58:01.196Z,16.10
2019-03-03T13:00:49.590Z,13.87
2019-03-03T13:03:40.448Z,16.67
2019-03-03T13:06:30.397Z,10.33
2019-03-03T13:09:31.064Z,13.20
2019-03-03T13:12:20.581Z,8.57
2019-03-03T13:15:08.945Z,15.67
2019-03-03T13:17:57.273Z,11.13
2019-03-03T13:20:45.573Z,12.87
2019-03-03T13:23:24.182Z,16.63
2019-03-03T13:26:12.483Z,16.10
2019-03-03T13:29:00.786Z,17.40
2019-03-03T13:34:42.770Z,11.33
2019-03-03T13:37:31.077Z,19.43
2019-03-03T13:40:19.601Z,17.73
2019-03-03T13:42:57.233Z,19.90
2019-03-03T13:45:49.347Z,13.97
2019-03-03T13:48:30.299Z,14.50
2019-03-03T13:51:02.294Z,13.30
2019-03-03T13:53:32.003Z,15.00
2019-03-03T13:56:01.599Z,12.57
2019-03-03T13:58:36.341Z,13.17
2019-03-03T14:01:05.851Z,18.13
2019-03-03T14:03:35.295Z,14.73
2019-03-03T14:06:25.050Z,16.83
2019-03-03T14:14:55.678Z,12.80
2019-03-03T14:17:37.461Z,16.80
2019-03-03T14:20:29.741Z,13.20
2019-03-03T14:25:49.299Z,14.60
2019-03-03T14:28:18.911Z,13.23
2019-03-03T14:36:13.663Z,13.27
2019-03-03T14:38:43.244Z,14.13
2019-03-03T14:41:12.651Z,16.47
2019-03-03T14:43:42.076Z,16.20
2019-03-03T14:46:30.612Z,19.47
2019-03-03T14:49:11.635Z,12.17
2019-03-03T14:51:52.322Z,14.43
2019-03-03T14:54:21.805Z,10.80
2019-03-03T14:56:54.248Z,10.27
2019-03-03T14:59:26.084Z,22.40
2019-03-03T15:01:55.474Z,13.07
2019-03-03T15:07:03.486Z,15.40
2019-03-03T15:09:34.163Z,16.20
2019-03-03T15:12:03.662Z,13.67
2019-03-03T15:14:39.118Z,15.63
2019-03-03T15:17:08.513Z,13.40
2019-03-03T15:19:37.934Z,16.03
2019-03-03T15:22:07.448Z,17.73
2019-03-03T15:24:36.831Z,13.33
2019-03-03T15:27:06.312Z,13.17
2019-03-03T15:29:35.786Z,16.97
2019-03-03T15:32:05.288Z,18.73
2019-03-03T15:34:34.700Z,14.17
2019-03-03T15:39:40.778Z,13.50
2019-03-03T15:42:10.332Z,16.90
2019-03-03T15:44:39.862Z,16.73
2019-03-03T15:47:09.515Z,13.70
2019-03-03T15:49:38.973Z,10.27
2019-03-03T15:52:27.323Z,14.33
2019-03-03T15:54:57.479Z,13.67
2019-03-03T15:57:47.360Z,23.77
2019-03-03T16:08:54.499Z,12.20
2019-03-03T16:11:24.157Z,14.30
2019-03-03T16:13:53.538Z,17.33
2019-03-03T16:16:23.023Z,14.40
2019-03-03T16:18:52.566Z,11.47
2019-03-03T16:21:21.976Z,18.57
2019-03-03T16:23:53.983Z,17.50
2019-03-03T16:28:59.042Z,16.97
2019-03-03T16:34:03.726Z,16.83
2019-03-03T16:36:33.313Z,17.53
2019-03-03T16:39:02.701Z,19.70
2019-03-03T16:41:32.206Z,15.97
2019-03-03T16:46:37.052Z,18.20
2019-03-03T16:49:06.509Z,16.50
2019-03-03T16:51:55.090Z,17.87
2019-03-03T16:54:24.517Z,21.60
2019-03-03T16:56:54.960Z,18.17
2019-03-03T16:59:24.334Z,20.27
2019-03-03T17:01:54.126Z,19.73
2019-03-03T17:04:23.505Z,21.93
2019-03-03T17:06:53.011Z,12.10
2019-03-03T17:09:22.463Z,19.60
2019-03-03T17:11:51.940Z,21.03
2019-03-03T17:14:21.409Z,20.77
2019-03-03T17:16:51.150Z,18.57
2019-03-03T17:19:20.713Z,16.87
2019-03-03T17:21:50.313Z,18.33
2019-03-03T17:24:19.829Z,20.37
2019-03-03T17:26:49.319Z,21.57
2019-03-03T17:29:18.788Z,21.63
2019-03-03T17:34:23.204Z,17.77
2019-03-03T17:36:52.805Z,13.17
2019-03-03T17:39:22.260Z,23.37
2019-03-03T17:41:53.267Z,13.83
2019-03-03T17:44:22.838Z,19.63
2019-03-03T17:46:52.409Z,21.20
2019-03-03T17:49:21.862Z,21.30
2019-03-03T17:51:51.438Z,16.60
2019-03-03T17:54:20.978Z,14.77
2019-03-03T17:56:50.865Z,19.17
2019-03-03T18:01:56.326Z,16.30
2019-03-03T18:07:01.353Z,22.57
2019-03-03T18:09:30.980Z,17.97
2019-03-03T18:12:19.327Z,19.27
2019-03-03T18:14:49.246Z,17.33
2019-03-03T18:17:18.818Z,23.90
2019-03-03T18:19:48.393Z,23.03
2019-03-03T18:22:18.266Z,15.43
2019-03-03T18:24:47.711Z,19.60
2019-03-03T18:27:17.147Z,20.60
2019-03-03T18:29:46.578Z,20.90
2019-03-03T18:37:45.356Z,18.83
2019-03-03T18:43:17.527Z,27.03
2019-03-03T18:45:47.315Z,20.63
2019-03-03T18:48:16.763Z,14.53
2019-03-03T18:50:46.328Z,18.33
2019-03-03T18:53:15.878Z,21.13
2019-03-03T18:55:45.346Z,22.83
2019-03-03T18:58:14.793Z,19.27
2019-03-03T19:00:45.250Z,17.63
2019-03-03T19:03:14.674Z,28.83
2019-03-03T19:05:44.415Z,13.30
2019-03-03T19:08:13.860Z,18.87
2019-03-03T19:10:43.576Z,25.90
2019-03-03T19:13:13.055Z,18.93
2019-03-03T19:18:31.458Z,27.90
2019-03-03T19:21:00.991Z,23.40
2019-03-03T19:23:30.483Z,24.70
2019-03-03T19:28:35.193Z,23.33
2019-03-03T19:31:04.744Z,22.00
2019-03-03T19:33:55.505Z,21.57
2019-03-03T19:36:39.320Z,17.40
2019-03-03T19:38:58.085Z,18.80
2019-03-03T19:41:39.184Z,14.87
2019-03-03T19:44:08.601Z,22.23
2019-03-03T19:46:38.113Z,17.93
2019-03-03T19:49:07.680Z,22.27
2019-03-03T19:51:37.102Z,20.73
2019-03-03T19:54:06.507Z,21.13
2019-03-03T19:59:10.863Z,20.23
2019-03-03T20:01:51.529Z,26.37
2019-03-03T20:04:33.313Z,18.50
2019-03-03T20:07:02.824Z,20.27
2019-03-03T20:09:59.767Z,25.00
2019-03-03T20:12:29.393Z,20.50
2019-03-03T20:15:01.821Z,16.30
2019-03-03T20:17:31.355Z,24.77
2019-03-03T20:22:37.653Z,24.03
2019-03-03T20:25:26.356Z,28.93
2019-03-03T20:27:56.022Z,19.57
2019-03-03T20:30:25.633Z,22.37
2019-03-03T20:32:55.838Z,20.33
2019-03-03T20:35:25.350Z,25.93
2019-03-03T20:37:54.913Z,23.97
2019-03-03T20:40:24.508Z,21.67
2019-03-03T20:42:53.992Z,21.33
2019-03-03T20:45:24.369Z,19.47
2019-03-03T20:47:53.941Z,25.67
2019-03-03T20:50:43.741Z,25.60
2019-03-03T20:53:24.619Z,22.37
2019-03-03T20:55:56.905Z,21.40
2019-03-03T20:58:45.274Z,24.37
2019-03-03T21:06:48.802Z,25.67
2019-03-03T21:09:30.323Z,27.20
2019-03-03T21:11:59.875Z,19.87
2019-03-03T21:14:29.342Z,27.73
2019-03-03T21:16:58.764Z,22.97
2019-03-03T21:19:42.297Z,24.27
2019-03-03T21:21:59.467Z,20.93
2019-03-03T21:24:51.322Z,28.53
2019-03-03T21:30:20.127Z,20.80
2019-03-03T21:33:09.943Z,22.87
2019-03-03T21:38:34.718Z,30.63
2019-03-03T21:41:04.230Z,24.77
2019-03-03T21:43:35.666Z,22.83
2019-03-03T21:46:05.246Z,31.27
2019-03-03T21:48:34.640Z,19.47
2019-03-03T21:53:54.498Z,21.53
2019-03-03T21:56:24.035Z,23.37
2019-03-03T21:58:53.440Z,28.83
2019-03-03T22:07:05.690Z,24.43
2019-03-03T22:09:35.056Z,23.93
2019-03-03T22:12:15.902Z,25.07
2019-03-03T22:14:45.559Z,21.17
2019-03-03T22:17:15.003Z,22.37
2019-03-03T22:19:44.444Z,18.53
2019-03-03T22:22:13.819Z,29.53
2019-03-03T22:24:43.225Z,26.27
2019-03-03T22:27:13.206Z,21.10
2019-03-03T22:29:42.577Z,27.43
2019-03-03T22:32:11.999Z,18.63
2019-03-03T22:34:41.442Z,20.77
2019-03-03T22:37:10.917Z,17.83
2019-03-03T22:39:40.306Z,22.80
2019-03-03T22:42:09.744Z,20.03
2019-03-03T22:44:39.142Z,24.87
2019-03-03T22:47:08.512Z,17.70
2019-03-03T22:49:37.945Z,22.53
2019-03-03T22:52:07.382Z,28.90
2019-03-03T22:54:36.763Z,18.23
2019-03-03T22:57:06.202Z,21.37
2019-03-03T22:59:35.585Z,21.03
2019-03-03T23:02:05.187Z,24.07
2019-03-03T23:04:51.797Z,23.17
2019-03-03T23:07:59.311Z,18.13
2019-03-03T23:11:06.727Z,24.90
2019-03-03T23:16:31.022Z,21.93
2019-03-03T23:19:38.492Z,23.10
2019-03-03T23:22:51.754Z,22.67
2019-03-03T23:25:49.315Z,24.80
2019-03-03T23:28:39.473Z,25.60
2019-03-03T23:31:08.917Z,25.23
2019-03-03T23:33:38.369Z,25.73
2019-03-03T23:36:07.925Z,20.73
2019-03-03T23:38:37.342Z,20.93
2019-03-03T23:41:06.765Z,28.03
2019-03-03T23:43:36.402Z,21.77
2019-03-03T23:46:05.793Z,22.07
2019-03-03T23:48:35.213Z,27.53
2019-03-03T23:53:43.524Z,19.03
2019-03-03T23:56:32.269Z,24.13
2019-03-03T23:59:01.953Z,23.03
